sensor_id;sensor_type;location;lat;lon;timestamp;temperature;humidity
18337;DHT22;9294;51.106;7.028;2023-12-22T00:01:00;20.10;92.20
18337;DHT22;9294;51.106;7.028;2023-12-22T00:03:27;20.20;92.20
18337;DHT22;9294;51.106;7.028;2023-12-22T00:05:54;20.10;92.20
18337;DHT22;9294;51.106;7.028;2023-12-22T00:08:22;20.10;92.20
18337;DHT22;9294;51.106;7.028;2023-12-22T00:10:49;20.10;92.20
18337;DHT22;9294;51.106;7.028;2023-12-22T00:13:16;20.10;92.20
18337;DHT22;9294;51.106;7.028;2023-12-22T00:15:42;20.10;92.20
18337;DHT22;9294;51.106;7.028;2023-12-22T00:18:09;20.10;92.20
18337;DHT22;9294;51.106;7.028;2023-12-22T00:20:36;20.00;92.10
18337;DHT22;9294;51.106;7.028;2023-12-22T00:23:03;20.00;92.10
18337;DHT22;9294;51.106;7.028;2023-12-22T00:25:31;20.00;92.10
18337;DHT22;9294;51.106;7.028;2023-12-22T00:27:57;20.00;92.10
18337;DHT22;9294;51.106;7.028;2023-12-22T00:30:24;20.00;92.10
18337;DHT22;9294;51.106;7.028;2023-12-22T00:32:50;20.00;92.10
18337;DHT22;9294;51.106;7.028;2023-12-22T00:35:17;20.00;92.10
18337;DHT22;9294;51.106;7.028;2023-12-22T00:37:44;19.90;92.00
18337;DHT22;9294;51.106;7.028;2023-12-22T00:40:11;19.90;92.00
18337;DHT22;9294;51.106;7.028;2023-12-22T00:42:39;19.90;91.90
18337;DHT22;9294;51.106;7.028;2023-12-22T00:45:06;19.90;91.90
18337;DHT22;9294;51.106;7.028;2023-12-22T00:47:33;19.90;91.90
18337;DHT22;9294;51.106;7.028;2023-12-22T00:50:01;19.90;91.90
18337;DHT22;9294;51.106;7.028;2023-12-22T00:52:28;19.90;91.90
18337;DHT22;9294;51.106;7.028;2023-12-22T00:54:54;19.90;91.90
18337;DHT22;9294;51.106;7.028;2023-12-22T00:57:21;19.90;91.90
18337;DHT22;9294;51.106;7.028;2023-12-22T00:59:49;19.80;91.90
18337;DHT22;9294;51.106;7.028;2023-12-22T01:02:16;19.90;91.90
18337;DHT22;9294;51.106;7.028;2023-12-22T01:04:43;19.90;91.90
18337;DHT22;9294;51.106;7.028;2023-12-22T01:07:10;19.90;91.90
18337;DHT22;9294;51.106;7.028;2023-12-22T01:09:38;19.90;91.90
18337;DHT22;9294;51.106;7.028;2023-12-22T01:12:05;19.90;92.20
18337;DHT22;9294;51.106;7.028;2023-12-22T01:14:32;19.90;91.80
18337;DHT22;9294;51.106;7.028;2023-12-22T01:17:00;19.80;91.80
18337;DHT22;9294;51.106;7.028;2023-12-22T01:19:27;19.90;91.80
18337;DHT22;9294;51.106;7.028;2023-12-22T01:21:54;19.80;91.70
18337;DHT22;9294;51.106;7.028;2023-12-22T01:24:20;19.80;91.70
18337;DHT22;9294;51.106;7.028;2023-12-22T01:26:47;19.80;91.70
18337;DHT22;9294;51.106;7.028;2023-12-22T01:29:14;19.80;91.70
18337;DHT22;9294;51.106;7.028;2023-12-22T01:31:40;19.80;92.00
18337;DHT22;9294;51.106;7.028;2023-12-22T01:34:08;19.80;91.70
18337;DHT22;9294;51.106;7.028;2023-12-22T01:36:35;19.80;91.60
18337;DHT22;9294;51.106;7.028;2023-12-22T01:39:02;19.80;91.60
18337;DHT22;9294;51.106;7.028;2023-12-22T01:41:29;19.80;91.60
18337;DHT22;9294;51.106;7.028;2023-12-22T01:43:56;19.80;91.60
18337;DHT22;9294;51.106;7.028;2023-12-22T01:46:22;19.70;91.50
18337;DHT22;9294;51.106;7.028;2023-12-22T01:48:49;19.80;91.50
18337;DHT22;9294;51.106;7.028;2023-12-22T01:51:18;19.70;91.50
18337;DHT22;9294;51.106;7.028;2023-12-22T01:53:45;19.80;91.50
18337;DHT22;9294;51.106;7.028;2023-12-22T01:56:12;19.80;91.50
18337;DHT22;9294;51.106;7.028;2023-12-22T01:58:40;19.80;91.40
18337;DHT22;9294;51.106;7.028;2023-12-22T02:01:07;19.70;91.40
18337;DHT22;9294;51.106;7.028;2023-12-22T02:03:33;19.70;91.30
18337;DHT22;9294;51.106;7.028;2023-12-22T02:06:00;19.80;91.30
18337;DHT22;9294;51.106;7.028;2023-12-22T02:08:28;19.70;91.20
18337;DHT22;9294;51.106;7.028;2023-12-22T02:10:58;19.70;91.30
18337;DHT22;9294;51.106;7.028;2023-12-22T02:13:25;19.70;91.20
18337;DHT22;9294;51.106;7.028;2023-12-22T02:15:56;19.70;91.20
18337;DHT22;9294;51.106;7.028;2023-12-22T02:18:31;19.70;91.20
18337;DHT22;9294;51.106;7.028;2023-12-22T02:20:59;19.70;91.10
18337;DHT22;9294;51.106;7.028;2023-12-22T02:23:27;19.70;91.10
18337;DHT22;9294;51.106;7.028;2023-12-22T02:26:01;19.70;91.10
18337;DHT22;9294;51.106;7.028;2023-12-22T02:28:31;19.70;91.10
18337;DHT22;9294;51.106;7.028;2023-12-22T02:31:04;19.70;91.10
18337;DHT22;9294;51.106;7.028;2023-12-22T02:33:34;19.70;91.10
18337;DHT22;9294;51.106;7.028;2023-12-22T02:36:03;19.70;91.10
18337;DHT22;9294;51.106;7.028;2023-12-22T02:38:33;19.70;91.10
18337;DHT22;9294;51.106;7.028;2023-12-22T02:41:00;19.70;91.10
18337;DHT22;9294;51.106;7.028;2023-12-22T02:43:28;19.60;91.00
18337;DHT22;9294;51.106;7.028;2023-12-22T02:45:55;19.70;91.10
18337;DHT22;9294;51.106;7.028;2023-12-22T02:48:21;19.70;91.50
18337;DHT22;9294;51.106;7.028;2023-12-22T02:50:48;19.60;91.10
18337;DHT22;9294;51.106;7.028;2023-12-22T02:53:15;19.60;91.00
18337;DHT22;9294;51.106;7.028;2023-12-22T02:55:42;19.60;91.00
18337;DHT22;9294;51.106;7.028;2023-12-22T02:58:09;19.60;91.00
18337;DHT22;9294;51.106;7.028;2023-12-22T03:00:36;19.60;91.00
18337;DHT22;9294;51.106;7.028;2023-12-22T03:03:03;19.60;91.00
18337;DHT22;9294;51.106;7.028;2023-12-22T03:05:30;19.60;91.10
18337;DHT22;9294;51.106;7.028;2023-12-22T03:07:56;19.60;91.00
18337;DHT22;9294;51.106;7.028;2023-12-22T03:10:23;19.60;91.00
18337;DHT22;9294;51.106;7.028;2023-12-22T03:12:51;19.60;91.00
18337;DHT22;9294;51.106;7.028;2023-12-22T03:15:17;19.60;91.00
18337;DHT22;9294;51.106;7.028;2023-12-22T03:17:44;19.60;91.00
18337;DHT22;9294;51.106;7.028;2023-12-22T03:20:11;19.60;91.00
18337;DHT22;9294;51.106;7.028;2023-12-22T03:22:38;19.50;90.90
18337;DHT22;9294;51.106;7.028;2023-12-22T03:25:05;19.60;91.00
18337;DHT22;9294;51.106;7.028;2023-12-22T03:27:32;19.50;91.00
18337;DHT22;9294;51.106;7.028;2023-12-22T03:30:00;19.60;91.00
18337;DHT22;9294;51.106;7.028;2023-12-22T03:32:27;19.50;91.00
18337;DHT22;9294;51.106;7.028;2023-12-22T03:34:53;19.50;91.00
18337;DHT22;9294;51.106;7.028;2023-12-22T03:37:20;19.50;91.00
18337;DHT22;9294;51.106;7.028;2023-12-22T03:39:47;19.50;91.00
18337;DHT22;9294;51.106;7.028;2023-12-22T03:42:13;19.50;91.00
18337;DHT22;9294;51.106;7.028;2023-12-22T03:44:40;19.50;91.00
18337;DHT22;9294;51.106;7.028;2023-12-22T03:47:08;19.50;91.00
18337;DHT22;9294;51.106;7.028;2023-12-22T03:49:35;19.50;91.00
18337;DHT22;9294;51.106;7.028;2023-12-22T03:52:02;19.50;91.00
18337;DHT22;9294;51.106;7.028;2023-12-22T03:54:28;19.50;91.00
18337;DHT22;9294;51.106;7.028;2023-12-22T03:56:55;19.50;91.00
18337;DHT22;9294;51.106;7.028;2023-12-22T03:59:22;19.50;91.00
18337;DHT22;9294;51.106;7.028;2023-12-22T04:01:50;19.50;91.00
18337;DHT22;9294;51.106;7.028;2023-12-22T04:04:19;19.50;91.00
18337;DHT22;9294;51.106;7.028;2023-12-22T04:06:47;19.40;91.00
18337;DHT22;9294;51.106;7.028;2023-12-22T04:09:14;19.40;91.00
18337;DHT22;9294;51.106;7.028;2023-12-22T04:11:40;19.40;91.00
18337;DHT22;9294;51.106;7.028;2023-12-22T04:14:07;19.40;91.00
18337;DHT22;9294;51.106;7.028;2023-12-22T04:16:36;19.40;90.90
18337;DHT22;9294;51.106;7.028;2023-12-22T04:19:03;19.40;91.00
18337;DHT22;9294;51.106;7.028;2023-12-22T04:21:31;19.40;90.90
18337;DHT22;9294;51.106;7.028;2023-12-22T04:23:58;19.40;90.90
18337;DHT22;9294;51.106;7.028;2023-12-22T04:26:24;19.40;90.90
18337;DHT22;9294;51.106;7.028;2023-12-22T04:28:51;19.40;91.00
18337;DHT22;9294;51.106;7.028;2023-12-22T04:31:17;19.40;91.00
18337;DHT22;9294;51.106;7.028;2023-12-22T04:33:44;19.40;91.00
18337;DHT22;9294;51.106;7.028;2023-12-22T04:36:11;19.40;91.00
18337;DHT22;9294;51.106;7.028;2023-12-22T04:38:39;19.40;91.00
18337;DHT22;9294;51.106;7.028;2023-12-22T04:41:06;19.40;91.00
18337;DHT22;9294;51.106;7.028;2023-12-22T04:43:33;19.20;91.10
18337;DHT22;9294;51.106;7.028;2023-12-22T04:45:59;19.20;91.50
18337;DHT22;9294;51.106;7.028;2023-12-22T04:48:26;19.30;91.60
18337;DHT22;9294;51.106;7.028;2023-12-22T04:50:53;19.30;91.70
18337;DHT22;9294;51.106;7.028;2023-12-22T04:53:19;19.30;91.70
18337;DHT22;9294;51.106;7.028;2023-12-22T04:55:47;19.40;91.60
18337;DHT22;9294;51.106;7.028;2023-12-22T04:58:14;19.40;91.60
18337;DHT22;9294;51.106;7.028;2023-12-22T05:00:41;19.50;91.50
18337;DHT22;9294;51.106;7.028;2023-12-22T05:03:07;19.60;91.40
18337;DHT22;9294;51.106;7.028;2023-12-22T05:05:34;19.60;91.40
18337;DHT22;9294;51.106;7.028;2023-12-22T05:08:01;19.70;91.40
18337;DHT22;9294;51.106;7.028;2023-12-22T05:10:28;19.70;91.30
18337;DHT22;9294;51.106;7.028;2023-12-22T05:12:56;19.80;91.20
18337;DHT22;9294;51.106;7.028;2023-12-22T05:15:22;19.90;91.10
18337;DHT22;9294;51.106;7.028;2023-12-22T05:17:49;19.90;91.00
18337;DHT22;9294;51.106;7.028;2023-12-22T05:20:16;20.00;91.00
18337;DHT22;9294;51.106;7.028;2023-12-22T05:22:43;20.00;90.90
18337;DHT22;9294;51.106;7.028;2023-12-22T05:25:09;20.10;90.90
18337;DHT22;9294;51.106;7.028;2023-12-22T05:27:36;20.10;90.80
18337;DHT22;9294;51.106;7.028;2023-12-22T05:30:05;20.20;90.60
18337;DHT22;9294;51.106;7.028;2023-12-22T05:32:32;20.20;90.60
18337;DHT22;9294;51.106;7.028;2023-12-22T05:34:59;20.30;90.50
18337;DHT22;9294;51.106;7.028;2023-12-22T05:37:25;20.30;90.40
18337;DHT22;9294;51.106;7.028;2023-12-22T05:39:52;20.30;90.40
18337;DHT22;9294;51.106;7.028;2023-12-22T05:42:19;20.30;90.30
18337;DHT22;9294;51.106;7.028;2023-12-22T05:44:45;20.40;90.20
18337;DHT22;9294;51.106;7.028;2023-12-22T05:47:16;20.40;90.20
18337;DHT22;9294;51.106;7.028;2023-12-22T05:49:43;20.40;90.20
18337;DHT22;9294;51.106;7.028;2023-12-22T05:52:11;20.40;90.10
18337;DHT22;9294;51.106;7.028;2023-12-22T05:54:38;20.40;90.10
18337;DHT22;9294;51.106;7.028;2023-12-22T05:57:05;20.40;90.20
18337;DHT22;9294;51.106;7.028;2023-12-22T05:59:32;20.40;90.10
18337;DHT22;9294;51.106;7.028;2023-12-22T06:02:00;20.40;90.20
18337;DHT22;9294;51.106;7.028;2023-12-22T06:04:28;20.40;90.10
18337;DHT22;9294;51.106;7.028;2023-12-22T06:06:54;20.40;90.10
18337;DHT22;9294;51.106;7.028;2023-12-22T06:09:21;20.40;90.10
18337;DHT22;9294;51.106;7.028;2023-12-22T06:11:48;20.40;90.10
18337;DHT22;9294;51.106;7.028;2023-12-22T06:14:15;20.40;90.10
18337;DHT22;9294;51.106;7.028;2023-12-22T06:16:41;20.40;90.10
18337;DHT22;9294;51.106;7.028;2023-12-22T06:19:08;20.40;90.10
18337;DHT22;9294;51.106;7.028;2023-12-22T06:21:38;20.40;90.10
18337;DHT22;9294;51.106;7.028;2023-12-22T06:24:07;20.40;90.20
18337;DHT22;9294;51.106;7.028;2023-12-22T06:26:34;20.40;90.20
18337;DHT22;9294;51.106;7.028;2023-12-22T06:29:00;20.40;90.20
18337;DHT22;9294;51.106;7.028;2023-12-22T06:31:29;20.30;90.20
18337;DHT22;9294;51.106;7.028;2023-12-22T06:33:55;20.40;90.20
18337;DHT22;9294;51.106;7.028;2023-12-22T06:36:26;20.40;90.20
18337;DHT22;9294;51.106;7.028;2023-12-22T06:38:54;20.40;90.10
18337;DHT22;9294;51.106;7.028;2023-12-22T06:41:21;20.40;90.20
18337;DHT22;9294;51.106;7.028;2023-12-22T06:43:48;20.40;91.80
18337;DHT22;9294;51.106;7.028;2023-12-22T06:46:16;20.40;91.50
18337;DHT22;9294;51.106;7.028;2023-12-22T06:48:43;20.40;91.40
18337;DHT22;9294;51.106;7.028;2023-12-22T06:51:16;20.40;91.20
18337;DHT22;9294;51.106;7.028;2023-12-22T06:53:44;20.40;91.30
18337;DHT22;9294;51.106;7.028;2023-12-22T06:56:16;20.30;91.40
18337;DHT22;9294;51.106;7.028;2023-12-22T06:58:43;20.30;91.40
18337;DHT22;9294;51.106;7.028;2023-12-22T07:01:11;20.30;91.40
18337;DHT22;9294;51.106;7.028;2023-12-22T07:03:38;20.30;91.40
18337;DHT22;9294;51.106;7.028;2023-12-22T07:06:05;20.30;91.50
18337;DHT22;9294;51.106;7.028;2023-12-22T07:08:32;20.30;91.40
18337;DHT22;9294;51.106;7.028;2023-12-22T07:10:58;20.30;91.40
18337;DHT22;9294;51.106;7.028;2023-12-22T07:13:26;20.30;91.70
18337;DHT22;9294;51.106;7.028;2023-12-22T07:15:53;20.20;91.70
18337;DHT22;9294;51.106;7.028;2023-12-22T07:18:20;20.20;91.70
18337;DHT22;9294;51.106;7.028;2023-12-22T07:20:46;20.20;91.70
18337;DHT22;9294;51.106;7.028;2023-12-22T07:23:14;20.20;91.70
18337;DHT22;9294;51.106;7.028;2023-12-22T07:25:40;20.20;91.60
18337;DHT22;9294;51.106;7.028;2023-12-22T07:28:07;20.20;91.60
18337;DHT22;9294;51.106;7.028;2023-12-22T07:30:35;20.20;91.70
18337;DHT22;9294;51.106;7.028;2023-12-22T07:33:02;20.20;91.60
18337;DHT22;9294;51.106;7.028;2023-12-22T07:35:29;20.20;91.60
18337;DHT22;9294;51.106;7.028;2023-12-22T07:37:56;20.20;91.50
18337;DHT22;9294;51.106;7.028;2023-12-22T07:40:22;20.10;91.30
18337;DHT22;9294;51.106;7.028;2023-12-22T07:42:49;20.20;91.10
18337;DHT22;9294;51.106;7.028;2023-12-22T07:45:17;20.20;91.10
18337;DHT22;9294;51.106;7.028;2023-12-22T07:47:45;20.30;91.10
18337;DHT22;9294;51.106;7.028;2023-12-22T07:50:12;20.50;91.10
18337;DHT22;9294;51.106;7.028;2023-12-22T07:52:39;20.60;90.90
18337;DHT22;9294;51.106;7.028;2023-12-22T07:55:06;20.60;91.00
18337;DHT22;9294;51.106;7.028;2023-12-22T07:57:34;20.70;91.10
18337;DHT22;9294;51.106;7.028;2023-12-22T08:00:01;20.80;90.40
18337;DHT22;9294;51.106;7.028;2023-12-22T08:02:28;20.80;90.50
18337;DHT22;9294;51.106;7.028;2023-12-22T08:04:57;20.80;90.40
18337;DHT22;9294;51.106;7.028;2023-12-22T08:07:23;20.90;90.20
18337;DHT22;9294;51.106;7.028;2023-12-22T08:09:50;20.90;89.90
18337;DHT22;9294;51.106;7.028;2023-12-22T08:12:17;20.90;89.60
18337;DHT22;9294;51.106;7.028;2023-12-22T08:14:43;20.90;88.90
18337;DHT22;9294;51.106;7.028;2023-12-22T08:17:10;20.90;89.10
18337;DHT22;9294;51.106;7.028;2023-12-22T08:19:39;20.90;88.10
18337;DHT22;9294;51.106;7.028;2023-12-22T08:22:09;20.80;88.20
18337;DHT22;9294;51.106;7.028;2023-12-22T08:24:36;20.90;88.90
18337;DHT22;9294;51.106;7.028;2023-12-22T08:27:03;20.90;89.10
18337;DHT22;9294;51.106;7.028;2023-12-22T08:29:30;20.90;88.80
18337;DHT22;9294;51.106;7.028;2023-12-22T08:31:57;20.90;88.70
18337;DHT22;9294;51.106;7.028;2023-12-22T08:34:23;20.80;88.60
18337;DHT22;9294;51.106;7.028;2023-12-22T08:36:50;20.80;88.50
18337;DHT22;9294;51.106;7.028;2023-12-22T08:39:18;20.90;88.60
18337;DHT22;9294;51.106;7.028;2023-12-22T08:41:45;20.80;88.40
18337;DHT22;9294;51.106;7.028;2023-12-22T08:44:12;20.80;88.40
18337;DHT22;9294;51.106;7.028;2023-12-22T08:46:40;20.80;88.30
18337;DHT22;9294;51.106;7.028;2023-12-22T08:49:06;20.80;88.20
18337;DHT22;9294;51.106;7.028;2023-12-22T08:51:33;20.80;88.40
18337;DHT22;9294;51.106;7.028;2023-12-22T08:54:00;20.80;88.20
18337;DHT22;9294;51.106;7.028;2023-12-22T08:56:28;20.70;88.20
18337;DHT22;9294;51.106;7.028;2023-12-22T08:58:55;20.70;88.30
18337;DHT22;9294;51.106;7.028;2023-12-22T09:01:24;20.70;88.40
18337;DHT22;9294;51.106;7.028;2023-12-22T09:03:51;20.70;88.50
18337;DHT22;9294;51.106;7.028;2023-12-22T09:06:19;20.70;88.50
18337;DHT22;9294;51.106;7.028;2023-12-22T09:08:46;20.70;89.30
18337;DHT22;9294;51.106;7.028;2023-12-22T09:11:15;20.70;88.80
18337;DHT22;9294;51.106;7.028;2023-12-22T09:13:43;20.70;89.10
18337;DHT22;9294;51.106;7.028;2023-12-22T09:16:10;20.70;89.10
18337;DHT22;9294;51.106;7.028;2023-12-22T09:18:40;20.70;89.20
18337;DHT22;9294;51.106;7.028;2023-12-22T09:21:07;20.70;89.20
18337;DHT22;9294;51.106;7.028;2023-12-22T09:23:34;20.70;89.20
18337;DHT22;9294;51.106;7.028;2023-12-22T09:26:01;20.70;89.30
18337;DHT22;9294;51.106;7.028;2023-12-22T09:28:27;20.70;89.40
18337;DHT22;9294;51.106;7.028;2023-12-22T09:30:55;20.70;89.30
18337;DHT22;9294;51.106;7.028;2023-12-22T09:33:22;20.70;89.60
18337;DHT22;9294;51.106;7.028;2023-12-22T09:35:49;20.70;89.70
18337;DHT22;9294;51.106;7.028;2023-12-22T09:38:16;20.70;89.80
18337;DHT22;9294;51.106;7.028;2023-12-22T09:40:43;20.70;89.60
18337;DHT22;9294;51.106;7.028;2023-12-22T09:43:12;20.70;89.50
18337;DHT22;9294;51.106;7.028;2023-12-22T09:45:40;20.70;89.40
18337;DHT22;9294;51.106;7.028;2023-12-22T09:48:10;20.80;89.40
18337;DHT22;9294;51.106;7.028;2023-12-22T09:50:42;20.80;89.20
18337;DHT22;9294;51.106;7.028;2023-12-22T09:53:09;20.80;89.20
18337;DHT22;9294;51.106;7.028;2023-12-22T09:55:38;20.80;89.20
18337;DHT22;9294;51.106;7.028;2023-12-22T09:58:06;20.80;89.10
18337;DHT22;9294;51.106;7.028;2023-12-22T10:00:35;20.80;89.10
18337;DHT22;9294;51.106;7.028;2023-12-22T10:03:03;20.80;89.00
18337;DHT22;9294;51.106;7.028;2023-12-22T10:05:32;20.80;89.00
18337;DHT22;9294;51.106;7.028;2023-12-22T10:08:00;20.80;89.00
18337;DHT22;9294;51.106;7.028;2023-12-22T10:10:28;20.80;89.20
18337;DHT22;9294;51.106;7.028;2023-12-22T10:12:56;20.80;89.20
18337;DHT22;9294;51.106;7.028;2023-12-22T10:15:24;20.80;89.20
18337;DHT22;9294;51.106;7.028;2023-12-22T10:17:51;20.80;89.40
18337;DHT22;9294;51.106;7.028;2023-12-22T10:20:17;20.80;89.30
18337;DHT22;9294;51.106;7.028;2023-12-22T10:22:46;20.80;89.40
18337;DHT22;9294;51.106;7.028;2023-12-22T10:25:14;20.80;89.50
18337;DHT22;9294;51.106;7.028;2023-12-22T10:27:42;20.80;89.40
18337;DHT22;9294;51.106;7.028;2023-12-22T10:30:10;20.80;89.30
18337;DHT22;9294;51.106;7.028;2023-12-22T10:32:40;20.80;89.50
18337;DHT22;9294;51.106;7.028;2023-12-22T10:35:07;20.80;89.50
18337;DHT22;9294;51.106;7.028;2023-12-22T10:37:34;20.80;89.50
18337;DHT22;9294;51.106;7.028;2023-12-22T10:40:06;20.80;89.50
18337;DHT22;9294;51.106;7.028;2023-12-22T10:42:34;20.80;89.60
18337;DHT22;9294;51.106;7.028;2023-12-22T10:45:02;20.80;89.60
18337;DHT22;9294;51.106;7.028;2023-12-22T10:47:29;20.80;89.60
18337;DHT22;9294;51.106;7.028;2023-12-22T10:49:56;20.80;89.60
18337;DHT22;9294;51.106;7.028;2023-12-22T10:52:23;20.80;89.80
18337;DHT22;9294;51.106;7.028;2023-12-22T10:54:50;20.80;89.70
18337;DHT22;9294;51.106;7.028;2023-12-22T10:57:18;20.80;89.80
18337;DHT22;9294;51.106;7.028;2023-12-22T10:59:46;20.80;89.60
18337;DHT22;9294;51.106;7.028;2023-12-22T11:02:15;20.80;89.90
18337;DHT22;9294;51.106;7.028;2023-12-22T11:04:47;20.80;89.90
18337;DHT22;9294;51.106;7.028;2023-12-22T11:07:14;20.80;90.00
18337;DHT22;9294;51.106;7.028;2023-12-22T11:09:42;20.80;90.00
18337;DHT22;9294;51.106;7.028;2023-12-22T11:12:11;20.80;90.00
18337;DHT22;9294;51.106;7.028;2023-12-22T11:14:40;20.80;90.00
18337;DHT22;9294;51.106;7.028;2023-12-22T11:17:07;20.90;90.20
18337;DHT22;9294;51.106;7.028;2023-12-22T11:19:35;20.90;90.30
18337;DHT22;9294;51.106;7.028;2023-12-22T11:22:04;20.90;90.30
18337;DHT22;9294;51.106;7.028;2023-12-22T11:24:33;20.80;90.50
18337;DHT22;9294;51.106;7.028;2023-12-22T11:27:01;20.90;90.70
18337;DHT22;9294;51.106;7.028;2023-12-22T11:29:30;20.80;90.70
18337;DHT22;9294;51.106;7.028;2023-12-22T11:31:59;20.80;90.70
18337;DHT22;9294;51.106;7.028;2023-12-22T11:34:28;20.90;90.70
18337;DHT22;9294;51.106;7.028;2023-12-22T11:36:57;20.80;90.70
18337;DHT22;9294;51.106;7.028;2023-12-22T11:39:25;20.90;90.70
18337;DHT22;9294;51.106;7.028;2023-12-22T11:41:52;20.80;90.60
18337;DHT22;9294;51.106;7.028;2023-12-22T11:44:20;20.90;90.80
18337;DHT22;9294;51.106;7.028;2023-12-22T11:46:47;20.90;90.80
18337;DHT22;9294;51.106;7.028;2023-12-22T11:49:15;20.90;90.90
18337;DHT22;9294;51.106;7.028;2023-12-22T11:51:41;20.90;90.80
18337;DHT22;9294;51.106;7.028;2023-12-22T11:57:30;20.80;90.70
18337;DHT22;9294;51.106;7.028;2023-12-22T11:59:58;20.70;90.60
18337;DHT22;9294;51.106;7.028;2023-12-22T12:02:26;20.80;90.70
18337;DHT22;9294;51.106;7.028;2023-12-22T12:04:54;20.80;90.70
18337;DHT22;9294;51.106;7.028;2023-12-22T12:07:40;20.80;90.60
18337;DHT22;9294;51.106;7.028;2023-12-22T12:10:10;20.80;90.60
18337;DHT22;9294;51.106;7.028;2023-12-22T12:12:37;20.80;90.60
18337;DHT22;9294;51.106;7.028;2023-12-22T12:15:09;20.70;90.50
18337;DHT22;9294;51.106;7.028;2023-12-22T12:17:40;20.70;90.50
18337;DHT22;9294;51.106;7.028;2023-12-22T12:20:10;20.70;90.60
18337;DHT22;9294;51.106;7.028;2023-12-22T12:22:37;20.70;90.60
18337;DHT22;9294;51.106;7.028;2023-12-22T12:25:09;20.80;90.60
18337;DHT22;9294;51.106;7.028;2023-12-22T12:27:37;20.80;90.60
18337;DHT22;9294;51.106;7.028;2023-12-22T12:30:09;20.80;90.60
18337;DHT22;9294;51.106;7.028;2023-12-22T12:32:37;20.80;90.60
18337;DHT22;9294;51.106;7.028;2023-12-22T12:35:04;20.80;90.50
18337;DHT22;9294;51.106;7.028;2023-12-22T12:37:33;20.80;90.50
18337;DHT22;9294;51.106;7.028;2023-12-22T12:40:01;20.80;90.50
18337;DHT22;9294;51.106;7.028;2023-12-22T12:42:29;20.80;90.40
18337;DHT22;9294;51.106;7.028;2023-12-22T12:44:57;20.80;90.30
18337;DHT22;9294;51.106;7.028;2023-12-22T12:47:24;20.80;90.30
18337;DHT22;9294;51.106;7.028;2023-12-22T12:49:56;20.80;90.20
18337;DHT22;9294;51.106;7.028;2023-12-22T12:52:24;20.80;90.20
18337;DHT22;9294;51.106;7.028;2023-12-22T12:54:52;20.80;90.10
18337;DHT22;9294;51.106;7.028;2023-12-22T12:57:19;20.80;90.10
18337;DHT22;9294;51.106;7.028;2023-12-22T12:59:46;20.80;90.20
18337;DHT22;9294;51.106;7.028;2023-12-22T13:02:14;20.80;90.30
18337;DHT22;9294;51.106;7.028;2023-12-22T13:04:41;20.80;90.40
18337;DHT22;9294;51.106;7.028;2023-12-22T13:07:08;20.80;90.50
18337;DHT22;9294;51.106;7.028;2023-12-22T13:09:38;20.80;90.50
18337;DHT22;9294;51.106;7.028;2023-12-22T13:12:09;20.80;90.50
18337;DHT22;9294;51.106;7.028;2023-12-22T13:14:36;20.90;90.60
18337;DHT22;9294;51.106;7.028;2023-12-22T13:17:03;20.90;90.70
18337;DHT22;9294;51.106;7.028;2023-12-22T13:19:29;20.90;90.70
18337;DHT22;9294;51.106;7.028;2023-12-22T13:21:56;20.80;90.60
18337;DHT22;9294;51.106;7.028;2023-12-22T13:24:23;20.80;90.70
18337;DHT22;9294;51.106;7.028;2023-12-22T13:26:59;20.90;90.70
18337;DHT22;9294;51.106;7.028;2023-12-22T13:29:28;20.80;90.60
18337;DHT22;9294;51.106;7.028;2023-12-22T13:31:55;20.80;90.60
18337;DHT22;9294;51.106;7.028;2023-12-22T13:34:23;20.80;90.60
18337;DHT22;9294;51.106;7.028;2023-12-22T13:36:50;20.80;90.50
18337;DHT22;9294;51.106;7.028;2023-12-22T13:39:17;20.80;90.50
18337;DHT22;9294;51.106;7.028;2023-12-22T13:41:44;20.80;90.50
18337;DHT22;9294;51.106;7.028;2023-12-22T13:44:12;20.80;90.50
18337;DHT22;9294;51.106;7.028;2023-12-22T13:46:40;20.80;90.40
18337;DHT22;9294;51.106;7.028;2023-12-22T13:49:08;20.80;90.40
18337;DHT22;9294;51.106;7.028;2023-12-22T13:51:42;20.80;90.40
18337;DHT22;9294;51.106;7.028;2023-12-22T13:54:08;20.80;90.40
18337;DHT22;9294;51.106;7.028;2023-12-22T13:56:35;20.80;90.40
18337;DHT22;9294;51.106;7.028;2023-12-22T13:59:03;20.80;90.40
18337;DHT22;9294;51.106;7.028;2023-12-22T14:01:30;20.80;90.30
18337;DHT22;9294;51.106;7.028;2023-12-22T14:03:58;20.80;90.10
18337;DHT22;9294;51.106;7.028;2023-12-22T14:06:25;20.80;90.10
18337;DHT22;9294;51.106;7.028;2023-12-22T14:08:52;20.90;90.20
18337;DHT22;9294;51.106;7.028;2023-12-22T14:11:19;20.90;90.20
18337;DHT22;9294;51.106;7.028;2023-12-22T14:13:46;20.90;90.10
18337;DHT22;9294;51.106;7.028;2023-12-22T14:16:13;20.90;90.10
18337;DHT22;9294;51.106;7.028;2023-12-22T14:18:40;20.90;90.00
18337;DHT22;9294;51.106;7.028;2023-12-22T14:21:08;20.90;90.00
18337;DHT22;9294;51.106;7.028;2023-12-22T14:23:35;21.00;90.10
18337;DHT22;9294;51.106;7.028;2023-12-22T14:26:02;21.00;90.10
18337;DHT22;9294;51.106;7.028;2023-12-22T14:28:28;21.00;90.10
18337;DHT22;9294;51.106;7.028;2023-12-22T14:30:55;21.00;90.10
18337;DHT22;9294;51.106;7.028;2023-12-22T14:33:22;21.00;90.10
18337;DHT22;9294;51.106;7.028;2023-12-22T14:35:48;21.00;90.00
18337;DHT22;9294;51.106;7.028;2023-12-22T14:38:16;21.00;90.00
18337;DHT22;9294;51.106;7.028;2023-12-22T14:40:43;21.00;90.00
18337;DHT22;9294;51.106;7.028;2023-12-22T14:43:10;21.00;90.10
18337;DHT22;9294;51.106;7.028;2023-12-22T14:45:36;21.00;90.10
18337;DHT22;9294;51.106;7.028;2023-12-22T14:48:04;21.00;90.10
18337;DHT22;9294;51.106;7.028;2023-12-22T14:50:31;21.00;90.20
18337;DHT22;9294;51.106;7.028;2023-12-22T14:52:57;20.90;90.10
18337;DHT22;9294;51.106;7.028;2023-12-22T14:55:25;20.90;90.00
18337;DHT22;9294;51.106;7.028;2023-12-22T14:57:53;20.90;90.10
18337;DHT22;9294;51.106;7.028;2023-12-22T15:00:20;20.90;90.30
18337;DHT22;9294;51.106;7.028;2023-12-22T15:02:46;20.90;90.30
18337;DHT22;9294;51.106;7.028;2023-12-22T15:05:13;20.90;90.00
18337;DHT22;9294;51.106;7.028;2023-12-22T15:07:39;20.80;90.00
18337;DHT22;9294;51.106;7.028;2023-12-22T15:10:07;20.90;90.10
18337;DHT22;9294;51.106;7.028;2023-12-22T15:12:36;20.80;90.10
18337;DHT22;9294;51.106;7.028;2023-12-22T15:15:03;20.80;90.10
18337;DHT22;9294;51.106;7.028;2023-12-22T15:17:30;20.80;90.00
18337;DHT22;9294;51.106;7.028;2023-12-22T15:19:57;20.80;90.10
18337;DHT22;9294;51.106;7.028;2023-12-22T15:22:24;20.80;90.10
18337;DHT22;9294;51.106;7.028;2023-12-22T15:24:50;20.80;90.00
18337;DHT22;9294;51.106;7.028;2023-12-22T15:27:17;20.80;90.00
18337;DHT22;9294;51.106;7.028;2023-12-22T15:29:46;20.80;89.90
18337;DHT22;9294;51.106;7.028;2023-12-22T15:32:13;20.80;89.80
18337;DHT22;9294;51.106;7.028;2023-12-22T15:34:41;20.80;89.60
18337;DHT22;9294;51.106;7.028;2023-12-22T15:37:08;20.80;89.60
18337;DHT22;9294;51.106;7.028;2023-12-22T15:39:34;20.80;89.50
18337;DHT22;9294;51.106;7.028;2023-12-22T15:42:02;20.80;89.50
18337;DHT22;9294;51.106;7.028;2023-12-22T15:44:28;20.80;89.40
18337;DHT22;9294;51.106;7.028;2023-12-22T15:46:56;20.80;89.30
18337;DHT22;9294;51.106;7.028;2023-12-22T15:49:23;20.80;89.20